LFSB/MLH METAR and TAF weather

Enter ICAO airport designator
Station Type Date Time Source
LFSB METAR 2020/09/18 16:00 UTC NOAA

LFSB 181600Z 09006KT 070V130 9999 FEW043 26/15 Q1019 NOSIG


Station Type Date Time Source
LFSB Decoded METAR 2020/09/18 16:00 UTC NOAA

Bale-Mulhouse, France (LFSB) 47-36N 007-31E 271M
Sep 18, 2020 - 12:00 PM EDT / 2020.09.18 1600 UTC
Wind: from the E (090 degrees) at 7 MPH (6 KT) (direction variable):0
Visibility: greater than 7 mile(s):0
Sky conditions: mostly clear
Temperature: 78 F (26 C)
Dew Point: 59 F (15 C)
Relative Humidity: 50%
Pressure (altimeter): 30.09 in. Hg (1019 hPa)
ob: LFSB 181600Z 09006KT 070V130 9999 FEW043 26/15 Q1019 NOSIG
cycle: 16

Station Type Date Time Source
LFSB TAF 2020/09/18 12:42 UTC NOAA

TAF LFSB 181100Z 1812/1912 10007KT CAVOK

Example: see airport list